Time;durP1;ratioP1;P1;durP2;ratioP2;P2;SDS_P1;SDS_P2;PMS_P1;PMS_P2;Temp;Humidity;BMP_temperature;BMP_pressure;BME280_temperature;BME280_humidity;BME280_pressure;Samples;Min_cycle;Max_cycle;Signal;HPM_P1;HPM_P2
2021/07/08 00:01:45;;;;;;;;;10.00;7.00;;;;;17.54;56.03;101137.69;4975065;28;61088;-60
2021/07/08 00:04:10;;;;;;;;;12.25;8.25;;;;;17.55;55.98;101130.56;4975491;28;45267;-60
2021/07/08 00:06:36;;;;;;;;;10.00;8.75;;;;;17.56;55.94;101135.69;4974638;28;67842;-60
2021/07/08 00:09:02;;;;;;;;;8.75;6.25;;;;;17.55;56.21;101131.38;4975066;28;58715;-60
2021/07/08 00:11:27;;;;;;;;;12.50;9.75;;;;;17.56;56.19;101127.72;4975824;28;45525;-60
2021/07/08 00:13:53;;;;;;;;;9.50;6.00;;;;;17.57;56.15;101134.69;4975325;28;45405;-60
2021/07/08 00:16:19;;;;;;;;;10.50;6.00;;;;;17.57;56.06;101129.38;4977269;27;45911;-60
2021/07/08 00:18:44;;;;;;;;;9.67;6.00;;;;;17.57;55.92;101129.38;4974580;28;62179;-59
2021/07/08 00:21:09;;;;;;;;;6.00;5.50;;;;;17.55;56.34;101130.56;4975273;28;45535;-60
2021/07/08 00:23:35;;;;;;;;;7.50;6.25;;;;;17.54;56.19;101135.03;4975821;27;56770;-60
2021/07/08 00:26:00;;;;;;;;;2.00;1.00;;;;;17.53;55.92;101130.72;4975298;28;45454;-60
2021/07/08 00:28:26;;;;;;;;;8.50;6.50;;;;;17.51;55.92;101130.03;4975159;28;49286;-60
2021/07/08 00:30:51;;;;;;;;;10.25;6.50;;;;;17.47;56.40;101129.56;4975388;28;45455;-60
2021/07/08 00:33:17;;;;;;;;;10.75;6.25;;;;;17.43;56.41;101133.53;4975089;28;46103;-60
2021/07/08 00:35:42;;;;;;;;;7.00;6.00;;;;;17.40;56.03;101136.53;4975079;28;47612;-60
2021/07/08 00:38:08;;;;;;;;;5.75;5.25;;;;;17.37;55.62;101139.53;4974266;28;45429;-60
2021/07/08 00:40:33;;;;;;;;;6.00;5.00;;;;;17.33;55.63;101136.38;4975229;28;45625;-60
2021/07/08 00:42:59;;;;;;;;;12.00;8.00;;;;;17.30;56.04;101131.41;4974386;28;64474;-60
2021/07/08 00:45:24;;;;;;;;;7.50;6.25;;;;;17.28;56.56;101133.38;4975179;28;45298;-59
2021/07/08 00:47:50;;;;;;;;;6.00;6.00;;;;;17.25;56.84;101131.06;4975250;28;45382;-60
2021/07/08 00:50:17;;;;;;;;;8.00;6.50;;;;;17.23;57.15;101126.91;4975100;28;45295;-60
2021/07/08 00:52:42;;;;;;;;;6.00;6.00;;;;;17.22;57.08;101127.91;4975125;28;46418;-60
2021/07/08 00:55:08;;;;;;;;;8.75;7.75;;;;;17.19;57.07;101121.94;4974291;28;64723;-60
2021/07/08 00:57:33;;;;;;;;;7.75;6.00;;;;;17.18;56.66;101124.75;4975183;28;45340;-61
2021/07/08 00:59:59;;;;;;;;;6.25;5.00;;;;;17.18;56.74;101128.25;4975036;28;45508;-60
2021/07/08 01:02:24;;;;;;;;;8.50;6.75;;;;;17.19;56.75;101131.72;4974315;28;63010;-60
2021/07/08 01:04:50;;;;;;;;;5.00;5.00;;;;;17.19;56.56;101137.88;4973580;28;45340;-60
2021/07/08 01:07:16;;;;;;;;;7.00;5.00;;;;;17.21;56.62;101137.69;4973553;28;52839;-60
2021/07/08 01:09:42;;;;;;;;;6.50;5.50;;;;;17.22;56.58;101144.66;4975039;28;45350;-61
2021/07/08 01:12:07;;;;;;;;;5.00;5.00;;;;;17.23;56.31;101138.38;4959114;28;56911;-60
2021/07/08 01:14:33;;;;;;;;;7.00;5.25;;;;;17.22;56.38;101127.91;4974871;28;45381;-60
2021/07/08 01:16:58;;;;;;;;;6.00;5.00;;;;;17.23;56.38;101133.06;4975020;28;45466;-61
2021/07/08 01:19:24;;;;;;;;;8.25;5.50;;;;;17.23;56.17;101133.06;4974891;28;45344;-60
2021/07/08 01:21:49;;;;;;;;;7.00;5.25;;;;;17.23;56.75;101135.72;4974675;28;46133;-60
2021/07/08 01:24:15;;;;;;;;;6.00;5.50;;;;;17.24;57.10;101136.53;4956394;28;71780;-61
2021/07/08 01:26:40;;;;;;;;;7.25;5.00;;;;;17.23;56.69;101135.72;4974063;28;61407;-60
2021/07/08 01:29:06;;;;;;;;;3.75;3.75;;;;;17.22;56.56;101135.88;4974802;28;45289;-61
2021/07/08 01:31:31;;;;;;;;;6.50;5.50;;;;;17.20;56.33;101125.41;4974567;28;46127;-60
2021/07/08 01:33:57;;;;;;;;;5.00;4.50;;;;;17.18;56.29;101130.91;4973725;28;70045;-60
2021/07/08 01:36:22;;;;;;;;;5.00;4.00;;;;;17.18;56.30;101138.88;4973850;28;65158;-60
2021/07/08 01:38:47;;;;;;;;;4.00;4.00;;;;;17.17;56.72;101147.00;4976152;28;45471;-61
2021/07/08 01:41:13;;;;;;;;;5.25;4.00;;;;;17.15;56.29;101152.47;4974443;28;45307;-61
2021/07/08 01:43:40;;;;;;;;;5.00;5.00;;;;;17.13;56.58;101150.97;4974425;28;45409;-60
2021/07/08 01:46:06;;;;;;;;;4.00;4.00;;;;;17.09;56.62;101153.13;4973589;28;45252;-61
2021/07/08 01:48:31;;;;;;;;;5.00;4.25;;;;;17.07;56.96;101152.47;4974528;28;45501;-60
2021/07/08 01:50:57;;;;;;;;;7.75;4.25;;;;;17.08;56.98;101162.09;4974251;28;45317;-60
2021/07/08 01:53:22;;;;;;;;;6.50;4.50;;;;;17.08;57.37;101158.59;4974193;28;45292;-60
2021/07/08 01:55:48;;;;;;;;;5.25;5.25;;;;;17.06;57.30;101159.59;4973500;28;67142;-59
2021/07/08 01:58:13;;;;;;;;;5.00;5.00;;;;;17.06;57.15;101159.59;4974229;28;45517;-59
2021/07/08 02:00:38;;;;;;;;;3.25;3.25;;;;;17.05;57.19;101165.88;4972999;28;74063;-60
2021/07/08 02:03:04;;;;;;;;;6.25;5.00;;;;;17.03;57.24;101167.06;4973331;28;70177;-60
2021/07/08 02:05:29;;;;;;;;;6.00;4.25;;;;;17.00;57.22;101172.69;4974344;28;45173;-60
2021/07/08 02:07:54;;;;;;;;;7.00;6.00;;;;;16.96;57.61;101176.63;4974289;28;45149;-60
2021/07/08 02:10:20;;;;;;;;;5.50;5.00;;;;;16.93;57.91;101169.84;4973393;28;63340;-60
2021/07/08 02:12:46;;;;;;;;;9.00;5.25;;;;;16.88;58.27;101170.31;4973973;28;45444;-61
2021/07/08 02:15:11;;;;;;;;;6.25;6.00;;;;;16.85;58.26;101180.44;4974219;28;45391;-60
2021/07/08 02:17:37;;;;;;;;;6.00;5.25;;;;;16.80;58.36;101177.41;4973745;28;45377;-60
2021/07/08 02:20:04;;;;;;;;;6.00;5.50;;;;;16.76;58.19;101184.84;4973595;28;46248;-60
2021/07/08 02:22:32;;;;;;;;;6.75;4.25;;;;;16.71;58.55;101177.41;4973851;28;45386;-59
2021/07/08 02:24:57;;;;;;;;;9.50;5.50;;;;;16.69;58.49;101176.72;4973895;28;45479;-61
2021/07/08 02:27:23;;;;;;;;;8.75;6.00;;;;;16.70;58.37;101181.03;4973320;28;59185;-60
2021/07/08 02:29:48;;;;;;;;;8.50;7.75;;;;;16.71;58.74;101174.75;4973033;28;63468;-60
2021/07/08 02:32:14;;;;;;;;;8.75;7.00;;;;;16.70;58.74;101173.06;4973514;28;45311;-60
2021/07/08 02:34:39;;;;;;;;;9.25;8.00;;;;;16.69;58.85;101174.06;4973585;28;45742;-60
2021/07/08 02:37:05;;;;;;;;;9.00;9.00;;;;;16.67;58.99;101165.44;4973574;28;46389;-60
2021/07/08 02:39:31;;;;;;;;;12.00;8.00;;;;;16.63;58.75;101168.59;4973232;28;46314;-60
2021/07/08 02:41:56;;;;;;;;;9.50;8.00;;;;;16.60;58.77;101177.69;4973577;28;45239;-60
2021/07/08 02:44:21;;;;;;;;;8.00;8.00;;;;;16.53;59.03;101169.53;4972861;28;64808;-60
2021/07/08 02:46:47;;;;;;;;;8.75;7.25;;;;;16.49;58.83;101162.03;4972626;28;67024;-60
2021/07/08 02:49:12;;;;;;;;;9.25;8.00;;;;;16.42;59.04;101157.41;4972496;28;69089;-60
2021/07/08 02:51:37;;;;;;;;;7.50;6.00;;;;;16.40;58.70;101163.84;4972600;28;68947;-60
2021/07/08 02:54:03;;;;;;;;;5.25;5.25;;;;;16.35;58.83;101152.88;4973436;28;45222;-60
2021/07/08 02:56:28;;;;;;;;;8.00;5.00;;;;;16.29;59.03;101149.88;4971770;28;56639;-60
2021/07/08 02:58:53;;;;;;;;;4.00;3.25;;;;;16.28;59.03;101150.03;4972464;28;69301;-60
2021/07/08 03:01:19;;;;;;;;;5.75;4.50;;;;;16.26;59.06;101150.19;4972449;28;68663;-60
2021/07/08 03:03:44;;;;;;;;;5.50;4.25;;;;;16.26;59.41;101154.66;4973415;28;45473;-60
2021/07/08 03:06:10;;;;;;;;;7.00;6.00;;;;;16.26;59.44;101149.38;4972391;28;67607;-60
2021/07/08 03:08:35;;;;;;;;;5.25;4.75;;;;;16.26;59.51;101146.72;4972069;28;71266;-60
2021/07/08 03:11:01;;;;;;;;;8.00;6.00;;;;;16.24;60.01;101144.19;4972239;28;70404;-60
2021/07/08 03:13:26;;;;;;;;;9.00;5.75;;;;;16.21;59.89;101141.06;4973107;28;45354;-60
2021/07/08 03:15:52;;;;;;;;;6.50;5.50;;;;;16.18;59.58;101142.19;4972533;28;59166;-60
2021/07/08 03:18:17;;;;;;;;;4.75;4.75;;;;;16.15;59.79;101151.28;4972531;28;56559;-60
2021/07/08 03:20:45;;;;;;;;;5.50;5.00;;;;;16.14;60.16;101154.94;4971662;28;67502;-60
2021/07/08 03:23:11;;;;;;;;;6.50;5.75;;;;;16.12;60.16;101150.78;4972970;28;45292;-60
2021/07/08 03:25:36;;;;;;;;;5.25;4.25;;;;;16.12;59.97;101159.56;4972311;28;60180;-60
2021/07/08 03:28:02;;;;;;;;;7.50;5.75;;;;;16.14;59.63;101149.63;4972490;28;53105;-60
2021/07/08 03:30:30;;;;;;;;;6.00;6.00;;;;;16.16;59.83;101160.91;4976294;28;48729;-60
2021/07/08 03:32:55;;;;;;;;;5.00;5.00;;;;;16.16;60.50;101150.31;4974981;28;45278;-60
2021/07/08 03:35:20;;;;;;;;;7.00;5.00;;;;;16.14;60.29;101162.88;4975999;28;45527;-60
2021/07/08 03:37:46;;;;;;;;;5.50;5.00;;;;;16.12;60.60;101159.56;4975275;28;66569;-61
2021/07/08 03:40:12;;;;;;;;;6.50;6.00;;;;;16.15;60.20;101163.72;4977239;28;45347;-60
2021/07/08 03:42:38;;;;;;;;;4.75;4.50;;;;;16.16;60.22;101165.41;4975943;28;45800;-59
2021/07/08 03:45:04;;;;;;;;;5.75;5.75;;;;;16.17;60.33;101181.13;4974820;28;45424;-60
2021/07/08 03:47:30;;;;;;;;;7.00;4.75;;;;;16.19;60.08;101182.78;4974529;28;46231;-60
2021/07/08 03:49:55;;;;;;;;;5.00;4.00;;;;;16.18;60.43;101181.94;4975309;28;59352;-59
2021/07/08 03:52:20;;;;;;;;;4.50;4.50;;;;;16.17;59.93;101194.38;4975592;28;49410;-60
2021/07/08 03:54:46;;;;;;;;;6.00;6.00;;;;;16.14;60.27;101201.84;4974833;28;67107;-60
2021/07/08 03:57:11;;;;;;;;;9.25;7.50;;;;;16.12;60.38;101209.13;4975153;28;54545;-60
2021/07/08 03:59:37;;;;;;;;;11.25;8.50;;;;;16.10;60.18;101213.75;4975590;28;45217;-60
2021/07/08 04:02:02;;;;;;;;;9.25;8.25;;;;;16.09;60.69;101204.94;4975708;28;45687;-60
2021/07/08 04:04:27;;;;;;;;;15.75;14.00;;;;;16.09;60.66;101214.72;4975596;28;45274;-61
2021/07/08 04:06:53;;;;;;;;;8.50;8.50;;;;;16.09;60.53;101210.25;4975528;28;47154;-59
2021/07/08 04:09:18;;;;;;;;;9.75;8.25;;;;;16.08;60.23;101210.41;4975517;28;45368;-60
2021/07/08 04:11:44;;;;;;;;;9.00;7.75;;;;;16.06;60.33;101209.72;4976014;28;45676;-60
2021/07/08 04:14:09;;;;;;;;;10.00;7.75;;;;;16.02;60.73;101209.19;4975535;28;45339;-60
2021/07/08 04:16:35;;;;;;;;;7.75;7.75;;;;;15.97;60.95;101212.31;4975555;28;45285;-60
2021/07/08 04:19:02;;;;;;;;;8.50;8.25;;;;;15.97;60.88;101206.19;4975354;28;45322;-60
2021/07/08 04:21:29;;;;;;;;;8.25;8.25;;;;;15.93;61.00;101204.81;4975401;28;45247;-60
2021/07/08 04:23:54;;;;;;;;;8.50;6.75;;;;;15.91;60.72;101207.63;4975513;28;45211;-60
2021/07/08 04:26:19;;;;;;;;;9.25;6.50;;;;;15.89;61.30;101203.50;4974444;28;72938;-60
2021/07/08 04:28:45;;;;;;;;;5.00;5.00;;;;;15.85;61.45;101206.41;4974765;28;62791;-60
2021/07/08 04:31:15;;;;;;;;;8.50;6.50;;;;;15.85;61.27;101213.53;4975489;28;45174;-60
2021/07/08 04:33:40;;;;;;;;;6.50;6.50;;;;;15.82;61.57;101221.78;4975374;28;45368;-60
2021/07/08 04:36:06;;;;;;;;;6.50;6.50;;;;;15.77;61.73;101216.09;4975305;28;45548;-59
2021/07/08 04:38:31;;;;;;;;;12.25;10.00;;;;;15.73;61.54;101226.19;4975237;28;45331;-60
2021/07/08 04:40:56;;;;;;;;;8.00;7.75;;;;;15.71;61.73;101225.50;4974407;28;61197;-60
2021/07/08 04:43:22;;;;;;;;;7.75;6.75;;;;;15.69;61.91;101230.94;4974394;28;68874;-59
2021/07/08 04:45:48;;;;;;;;;11.00;8.25;;;;;15.69;61.79;101235.44;4974169;28;71177;-59
2021/07/08 04:48:14;;;;;;;;;10.75;8.25;;;;;15.68;62.02;101239.88;4975178;28;45194;-61
2021/07/08 04:50:39;;;;;;;;;14.00;9.00;;;;;15.66;61.98;101227.78;4975025;28;45355;-60
2021/07/08 04:53:05;;;;;;;;;8.50;7.25;;;;;15.65;61.76;101231.41;4974811;28;48790;-60
2021/07/08 04:55:30;;;;;;;;;11.25;8.50;;;;;15.64;61.92;101227.09;4974187;28;68391;-60
2021/07/08 04:57:56;;;;;;;;;8.75;7.25;;;;;15.63;62.36;101238.69;4973987;28;71250;-60
2021/07/08 05:00:21;;;;;;;;;11.00;8.25;;;;;15.61;61.99;101228.25;4975039;28;45208;-60
2021/07/08 05:02:50;;;;;;;;;10.25;8.50;;;;;15.62;62.05;101224.63;4975140;28;45530;-60
2021/07/08 05:05:16;;;;;;;;;10.50;9.25;;;;;15.64;62.59;101232.41;4974790;28;45374;-60
2021/07/08 05:07:41;;;;;;;;;11.75;9.75;;;;;15.66;62.47;101233.09;4974937;28;45368;-61
2021/07/08 05:10:08;;;;;;;;;11.25;9.25;;;;;15.66;62.32;101241.84;4975006;28;45689;-60
2021/07/08 05:12:34;;;;;;;;;16.00;10.50;;;;;15.68;62.62;101247.00;4973590;28;45353;-60
2021/07/08 05:14:59;;;;;;;;;9.75;9.50;;;;;15.70;62.30;101255.63;4974518;27;64499;-59
2021/07/08 05:17:25;;;;;;;;;12.00;12.00;;;;;15.72;62.43;101256.31;4974298;28;58309;-60
2021/07/08 05:19:50;;;;;;;;;13.75;11.50;;;;;15.71;62.08;101260.78;4973778;28;61955;-59
2021/07/08 05:22:19;;;;;;;;;10.50;10.50;;;;;15.73;62.51;101257.97;4974741;28;45300;-60
2021/07/08 05:24:44;;;;;;;;;11.75;11.75;;;;;15.72;62.53;101264.28;4973182;28;46191;-60
2021/07/08 05:27:15;;;;;;;;;13.25;11.25;;;;;15.71;62.28;101258.13;4974043;28;55026;-59
2021/07/08 05:29:41;;;;;;;;;12.00;10.25;;;;;15.71;62.53;101258.13;4974813;28;45178;-60
2021/07/08 05:32:07;;;;;;;;;12.00;11.00;;;;;15.76;62.63;101262.13;4974777;28;45166;-60
2021/07/08 05:34:32;;;;;;;;;21.50;17.25;;;;;15.75;62.64;101277.22;4974005;28;46870;-59
2021/07/08 05:36:57;;;;;;;;;12.25;12.00;;;;;15.76;63.06;101278.88;4973974;28;45382;-60
2021/07/08 05:39:23;;;;;;;;;11.75;11.75;;;;;15.80;62.35;101285.53;4974045;28;55512;-60
2021/07/08 05:41:48;;;;;;;;;13.25;12.25;;;;;15.85;62.65;101282.41;4973673;28;69887;-60
2021/07/08 05:44:14;;;;;;;;;12.75;10.50;;;;;15.89;63.02;101283.81;4972281;28;73716;-60
2021/07/08 05:46:39;;;;;;;;;13.75;12.50;;;;;15.94;62.66;101281.53;4973604;28;66237;-60
2021/07/08 05:49:04;;;;;;;;;14.75;11.50;;;;;16.02;62.61;101286.06;4973954;28;56022;-60
2021/07/08 05:51:31;;;;;;;;;13.00;12.00;;;;;16.09;62.56;101288.94;4973903;28;58036;-60
2021/07/08 05:53:59;;;;;;;;;10.50;9.75;;;;;16.17;62.46;101289.84;4973793;28;45386;-60
2021/07/08 05:56:25;;;;;;;;;12.50;11.50;;;;;16.28;62.70;101277.31;4974379;28;45805;-59
2021/07/08 05:58:51;;;;;;;;;15.00;11.75;;;;;16.37;62.19;101284.34;4974225;28;45302;-60
2021/07/08 06:01:16;;;;;;;;;12.50;11.25;;;;;16.46;62.22;101279.91;4974348;28;45526;-60
2021/07/08 06:03:41;;;;;;;;;12.00;9.50;;;;;16.57;62.22;101284.09;4973188;28;71940;-60
2021/07/08 06:06:07;;;;;;;;;13.00;12.00;;;;;16.66;61.82;101277.88;4973134;28;65902;-61
2021/07/08 06:08:33;;;;;;;;;11.00;8.25;;;;;16.76;62.02;101281.25;4974225;28;45198;-60
2021/07/08 06:10:58;;;;;;;;;10.00;8.75;;;;;16.90;62.04;101281.63;4974135;28;47150;-60
2021/07/08 06:13:23;;;;;;;;;10.50;8.50;;;;;17.02;61.79;101280.38;4973790;28;45388;-59
2021/07/08 06:15:49;;;;;;;;;12.00;11.50;;;;;17.15;61.19;101285.25;4973349;28;62412;-60
2021/07/08 06:18:14;;;;;;;;;8.25;8.00;;;;;17.27;61.04;101285.78;4973378;28;58156;-60
2021/07/08 06:20:39;;;;;;;;;13.00;11.75;;;;;17.41;61.17;101279.00;4973188;28;53210;-60
2021/07/08 06:23:05;;;;;;;;;11.00;8.00;;;;;17.55;61.03;101279.34;4972816;28;66539;-60
2021/07/08 06:25:31;;;;;;;;;7.25;7.00;;;;;17.68;60.77;101278.84;4972981;28;68028;-60
2021/07/08 06:27:57;;;;;;;;;10.50;9.50;;;;;17.84;60.52;101283.34;4973865;28;45436;-59
2021/07/08 06:30:22;;;;;;;;;9.00;8.25;;;;;17.99;60.54;101283.53;4973737;28;45441;-60
2021/07/08 06:32:48;;;;;;;;;10.50;9.00;;;;;18.15;60.16;101280.88;4973498;28;45942;-60
2021/07/08 06:35:17;;;;;;;;;10.00;9.00;;;;;18.32;60.06;101286.19;4972991;28;57622;-60
2021/07/08 06:37:42;;;;;;;;;11.50;9.00;;;;;18.49;59.55;101284.31;4973957;28;45358;-60
2021/07/08 06:40:08;;;;;;;;;13.75;10.00;;;;;18.64;59.16;101282.63;4973607;28;45504;-60
2021/07/08 06:42:34;;;;;;;;;11.25;11.00;;;;;18.81;59.15;101283.38;4973421;28;46079;-60
2021/07/08 06:45:00;;;;;;;;;7.00;6.75;;;;;18.99;58.77;101295.66;4973579;28;45458;-59
2021/07/08 06:47:32;;;;;;;;;9.00;7.00;;;;;19.17;58.12;101289.22;4972550;28;63612;-59
2021/07/08 06:49:57;;;;;;;;;8.50;7.00;;;;;19.34;57.72;101292.66;4973685;28;45228;-61
2021/07/08 06:52:22;;;;;;;;;7.25;6.50;;;;;19.48;57.50;101291.88;4972948;28;61030;-59
2021/07/08 06:54:48;;;;;;;;;8.75;7.75;;;;;19.64;57.04;101298.13;4972453;28;67068;-59
2021/07/08 06:57:14;;;;;;;;;4.50;4.50;;;;;19.74;56.45;101301.38;4972508;28;64758;-60
2021/07/08 06:59:39;;;;;;;;;7.00;5.00;;;;;19.84;56.47;101299.31;4973354;28;45483;-60
2021/07/08 07:02:05;;;;;;;;;8.00;6.00;;;;;20.00;55.86;101300.19;4972576;28;64569;-60
2021/07/08 07:04:30;;;;;;;;;6.50;5.25;;;;;20.11;55.58;101305.09;4974132;28;45314;-60
2021/07/08 07:06:55;;;;;;;;;7.00;7.00;;;;;20.26;54.68;101307.78;4976192;28;48361;-60
2021/07/08 07:09:21;;;;;;;;;5.50;5.00;;;;;20.43;54.90;101310.31;4975810;28;66447;-60
2021/07/08 07:11:46;;;;;;;;;6.00;6.00;;;;;20.58;54.64;101313.00;4976319;28;45484;-60
2021/07/08 07:14:12;;;;;;;;;6.25;5.00;;;;;20.77;54.43;101314.31;4975739;28;60926;-60
2021/07/08 07:16:37;;;;;;;;;4.75;4.75;;;;;20.92;53.85;101308.97;4976399;28;45264;-60
2021/07/08 07:19:03;;;;;;;;;5.00;5.00;;;;;21.08;52.25;101302.59;4976575;28;45519;-60
2021/07/08 07:21:28;;;;;;;;;5.75;5.75;;;;;21.22;51.95;101302.72;4976056;28;47681;-61
2021/07/08 07:23:53;;;;;;;;;4.25;4.00;;;;;21.33;52.08;101304.91;4975364;28;66714;-60
2021/07/08 07:26:22;;;;;;;;;4.25;3.75;;;;;21.53;51.40;101304.31;4976084;28;46583;-59
2021/07/08 07:28:48;;;;;;;;;4.75;4.25;;;;;21.64;50.57;101304.66;4976180;28;45565;-60
2021/07/08 07:31:13;;;;;;;;;4.25;4.00;;;;;21.74;51.01;101306.19;4976111;28;45473;-60
2021/07/08 07:33:42;;;;;;;;;6.50;6.00;;;;;21.82;50.93;101308.72;4976226;28;45388;-60
2021/07/08 07:36:07;;;;;;;;;5.25;5.25;;;;;21.87;50.74;101316.16;4974838;28;45363;-61
2021/07/08 07:38:33;;;;;;;;;5.25;4.25;;;;;21.93;50.82;101318.06;5008076;28;45863;-60
2021/07/08 07:40:58;;;;;;;;;5.50;5.00;;;;;21.98;50.10;101315.66;5029537;27;71754;-61
2021/07/08 07:43:23;;;;;;;;;4.75;3.75;;;;;22.03;49.59;101315.91;5013460;28;45181;-60
2021/07/08 07:45:49;;;;;;;;;4.50;4.50;;;;;22.03;49.31;101313.22;4988400;28;45215;-60
2021/07/08 07:48:15;;;;;;;;;4.50;4.25;;;;;22.04;49.15;101316.72;5012686;27;45263;-60
2021/07/08 07:50:40;;;;;;;;;3.75;3.75;;;;;22.06;49.33;101312.84;5000666;27;46529;-60
2021/07/08 07:53:05;;;;;;;;;4.00;4.00;;;;;22.06;49.33;101317.34;4983752;28;45351;-61
2021/07/08 07:55:31;;;;;;;;;6.25;6.00;;;;;22.05;49.51;101324.56;4981740;27;64100;-60
2021/07/08 07:58:00;;;;;;;;;5.00;4.75;;;;;22.09;49.34;101316.97;4990853;28;45645;-60
2021/07/08 08:00:25;;;;;;;;;8.25;7.00;;;;;22.18;49.28;101323.03;5006973;28;46741;-61
2021/07/08 08:02:52;;;;;;;;;7.00;5.00;;;;;22.25;49.31;101318.56;4988482;28;45301;-60
2021/07/08 08:10:27;;;;;;;;;7.00;4.50;;;;;22.66;47.89;101325.84;5009329;28;45388;-60
2021/07/08 08:12:52;;;;;;;;;6.75;6.00;;;;;22.76;47.60;101328.16;5004782;28;45395;-61
2021/07/08 08:15:18;;;;;;;;;5.75;5.50;;;;;22.84;47.69;101332.50;5005899;28;45432;-60
2021/07/08 08:17:44;;;;;;;;;7.00;5.75;;;;;22.86;47.29;101327.78;5002192;28;45467;-61
2021/07/08 08:20:10;;;;;;;;;7.75;5.50;;;;;22.90;47.59;101330.91;4996674;28;45998;-60
2021/07/08 08:22:38;;;;;;;;;4.00;4.00;;;;;22.89;48.05;101331.94;5017413;27;45245;-60
2021/07/08 08:25:05;;;;;;;;;6.50;5.50;;;;;22.83;48.16;101329.03;4995088;28;45530;-61
2021/07/08 08:27:30;;;;;;;;;5.25;5.25;;;;;22.79;47.85;101329.59;5022374;27;45290;-60
2021/07/08 08:29:55;;;;;;;;;7.50;6.00;;;;;22.71;47.95;101321.75;5014315;28;46256;-61
2021/07/08 08:32:21;;;;;;;;;7.75;5.50;;;;;22.61;48.19;101325.63;5001622;28;64825;-61
2021/07/08 08:34:46;;;;;;;;;5.25;4.50;;;;;22.48;47.91;101328.19;5003211;27;57404;-60
2021/07/08 08:37:11;;;;;;;;;4.00;3.25;;;;;22.36;49.63;101331.38;5025446;27;45747;-61
2021/07/08 08:39:37;;;;;;;;;5.25;5.25;;;;;22.27;49.19;101321.03;5018018;27;46400;-60
2021/07/08 08:42:08;;;;;;;;;7.50;5.50;;;;;22.17;49.44;101324.03;5015054;27;63738;-60
2021/07/08 08:44:33;;;;;;;;;6.00;6.00;;;;;22.10;49.95;101332.00;4973813;28;45506;-60
2021/07/08 08:46:58;;;;;;;;;8.25;7.00;;;;;22.02;49.59;101334.81;5002152;28;45375;-60
2021/07/08 08:49:24;;;;;;;;;8.00;7.00;;;;;21.91;50.32;101333.50;5004978;28;74244;-60
2021/07/08 08:51:49;;;;;;;;;7.50;5.25;;;;;21.84;50.18;101332.59;5016590;28;45351;-60
2021/07/08 08:54:15;;;;;;;;;6.50;6.50;;;;;21.78;49.92;101339.56;4994821;28;61701;-61
2021/07/08 08:56:40;;;;;;;;;7.50;6.75;;;;;21.71;50.31;101339.50;5018259;27;45472;-60
2021/07/08 08:59:06;;;;;;;;;6.50;6.00;;;;;21.65;49.70;101340.25;4980063;28;46102;-60
2021/07/08 09:01:31;;;;;;;;;5.00;5.00;;;;;21.62;50.41;101341.44;5046486;28;62938;-61
2021/07/08 09:03:56;;;;;;;;;4.25;4.00;;;;;21.55;51.55;101342.38;4974179;28;45416;-60
2021/07/08 09:06:22;;;;;;;;;7.25;7.25;;;;;21.48;51.57;101340.47;4984088;28;63180;-60
2021/07/08 09:08:52;;;;;;;;;7.00;6.00;;;;;21.46;52.09;101333.66;5042838;27;46054;-60
2021/07/08 09:11:19;;;;;;;;;7.50;6.25;;;;;21.45;52.27;101334.69;5055050;27;46343;-60
2021/07/08 09:13:55;;;;;;;;;5.75;5.75;;;;;21.49;52.33;101338.59;5076395;27;45465;-60
2021/07/08 09:16:21;;;;;;;;;4.75;4.50;;;;;21.59;51.05;101331.09;5076253;27;45529;-61
2021/07/08 09:19:02;;;;;;;;;6.00;5.00;;;;;21.79;51.12;101338.53;5076402;27;46387;-60
2021/07/08 09:21:28;;;;;;;;;5.00;4.50;;;;;21.98;49.63;101334.38;5075830;27;45410;-60
2021/07/08 09:24:07;;;;;;;;;5.50;5.50;;;;;22.22;48.61;101329.66;5074451;28;45473;-60
2021/07/08 09:26:34;;;;;;;;;5.00;3.75;;;;;22.39;48.41;101333.66;5075074;27;45715;-60
2021/07/08 09:29:06;;;;;;;;;4.25;4.00;;;;;22.54;47.80;101335.44;5075436;27;46307;-61
2021/07/08 09:31:32;;;;;;;;;5.00;4.00;;;;;22.63;47.46;101330.75;5076125;28;45441;-60
2021/07/08 09:34:12;;;;;;;;;4.00;4.00;;;;;22.67;46.72;101335.53;5076077;27;45679;-60
2021/07/08 09:36:37;;;;;;;;;4.25;3.75;;;;;22.72;46.75;101332.25;5076750;27;45384;-60
2021/07/08 09:39:02;;;;;;;;;4.50;4.00;;;;;22.82;46.95;101335.41;5076359;27;67438;-60
2021/07/08 09:41:29;;;;;;;;;10.50;9.00;;;;;22.93;46.48;101333.19;5027671;27;62201;-60
2021/07/08 09:43:55;;;;;;;;;4.75;4.75;;;;;23.02;46.48;101328.47;4974298;28;45513;-61
2021/07/08 09:46:33;;;;;;;;;6.00;4.00;;;;;23.09;45.96;101330.16;4993442;28;46182;-59
2021/07/08 09:49:06;;;;;;;;;3.50;3.50;;;;;23.12;46.32;101332.44;5004658;28;46057;-60
2021/07/08 09:51:32;;;;;;;;;5.00;5.00;;;;;23.17;45.46;101326.50;5003529;28;46048;-61
2021/07/08 09:54:06;;;;;;;;;3.50;2.75;;;;;23.21;45.37;101327.75;5008029;28;45443;-60
2021/07/08 09:56:49;;;;;;;;;4.00;3.75;;;;;23.25;45.50;101329.03;5003995;28;45601;-61
2021/07/08 09:59:20;;;;;;;;;5.00;3.00;;;;;23.29;45.29;101328.63;4996286;28;45389;-60
2021/07/08 10:01:46;;;;;;;;;6.50;4.00;;;;;23.30;44.93;101327.59;4994600;28;45471;-60
2021/07/08 10:04:11;;;;;;;;;3.00;3.00;;;;;23.27;44.83;101332.34;4981895;28;45612;-60
2021/07/08 10:06:37;;;;;;;;;9.50;8.00;;;;;23.24;45.03;101332.75;4999892;28;45684;-60
2021/07/08 10:09:04;;;;;;;;;5.50;4.00;;;;;23.20;45.67;101331.44;4991402;28;45715;-60
2021/07/08 10:11:30;;;;;;;;;7.00;4.50;;;;;23.16;45.63;101335.56;5005225;28;45969;-60
2021/07/08 10:13:57;;;;;;;;;4.00;4.00;;;;;23.12;46.78;101339.66;5008640;28;45418;-60
2021/07/08 10:16:22;;;;;;;;;3.25;3.25;;;;;23.08;46.35;101336.53;5010386;27;45695;-60
2021/07/08 10:18:48;;;;;;;;;5.75;3.75;;;;;23.05;46.60;101328.91;4993567;28;66719;-60
2021/07/08 10:21:14;;;;;;;;;4.75;4.50;;;;;23.11;45.62;101332.66;5014224;28;45312;-60
2021/07/08 10:23:39;;;;;;;;;3.75;3.75;;;;;23.22;45.68;101333.91;5003746;28;45565;-60
2021/07/08 10:26:06;;;;;;;;;6.25;4.00;;;;;23.40;45.00;101319.97;4993786;28;45529;-61
2021/07/08 10:28:33;;;;;;;;;9.00;9.00;;;;;23.62;45.67;101328.69;4995688;27;45464;-60
2021/07/08 10:30:58;;;;;;;;;5.00;5.00;;;;;23.81;43.38;101327.09;4993049;28;45911;-61
2021/07/08 10:33:24;;;;;;;;;5.00;4.00;;;;;23.92;42.70;101328.31;4994896;28;58149;-61
2021/07/08 10:35:53;;;;;;;;;4.00;4.00;;;;;23.98;43.13;101338.25;5003440;28;45413;-61
2021/07/08 10:38:40;;;;;;;;;8.25;5.75;;;;;24.04;42.69;101331.22;5016313;28;46158;-60
2021/07/08 10:41:11;;;;;;;;;5.00;4.00;;;;;24.13;41.78;101335.38;5003579;28;45513;-60
2021/07/08 10:43:37;;;;;;;;;4.00;4.00;;;;;24.19;41.20;101325.66;5012429;28;45311;-61
2021/07/08 10:46:07;;;;;;;;;4.00;4.00;;;;;24.24;41.86;101333.91;5010245;27;45258;-60
2021/07/08 10:48:38;;;;;;;;;3.50;3.50;;;;;24.27;41.22;101335.38;5016902;28;46015;-60
2021/07/08 10:51:04;;;;;;;;;3.00;3.00;;;;;24.29;41.75;101341.34;5003728;28;45746;-60
2021/07/08 10:53:34;;;;;;;;;3.25;3.00;;;;;24.33;41.46;101331.84;5014271;28;45877;-60
2021/07/08 10:56:00;;;;;;;;;5.00;2.75;;;;;24.36;40.84;101328.75;5009241;27;45649;-60
2021/07/08 10:58:41;;;;;;;;;3.00;3.00;;;;;24.38;41.55;101329.34;5019610;27;46057;-61
2021/07/08 11:01:11;;;;;;;;;3.00;2.75;;;;;24.39;40.77;101331.00;5012584;28;45416;-61
2021/07/08 11:03:40;;;;;;;;;5.00;3.25;;;;;24.39;41.06;101325.63;5024886;28;45497;-60
2021/07/08 11:06:18;;;;;;;;;4.00;4.00;;;;;24.40;41.14;101339.88;5027079;27;45438;-61
2021/07/08 11:08:47;;;;;;;;;5.50;4.50;;;;;24.35;41.49;101331.63;5021055;27;45460;-60
2021/07/08 11:11:18;;;;;;;;;6.25;5.00;;;;;24.32;41.39;101330.19;5037422;27;45584;-60
2021/07/08 11:13:44;;;;;;;;;3.00;3.00;;;;;24.31;41.22;101339.28;5045533;27;45560;-61
2021/07/08 11:16:09;;;;;;;;;7.00;3.50;;;;;24.28;41.31;101342.38;5025845;27;60231;-60
2021/07/08 11:18:34;;;;;;;;;4.00;3.00;;;;;24.23;43.04;101339.50;5048816;27;64729;-60
2021/07/08 11:21:00;;;;;;;;;4.25;3.75;;;;;24.17;42.37;101338.44;5028856;27;62588;-61
2021/07/08 11:23:36;;;;;;;;;6.00;3.75;;;;;24.13;41.93;101335.38;5062401;27;45512;-61